Аэропорт
У-Тапао (VTBU)

 VTBU / UTP

Thailand
TH-21
Районг
 12.67990, 101.00500  / 42 ft

 VTBU 182200Z 24012KT 9999 FEW020 SCT100 28/24 Q1001 NOSIG
 TAF VTBU 181700Z 1818/1918 24010KT 9999 FEW020 SCT100 TEMPO 1820/1901 VRB12G25KT 4000 TSRA FEW018CB SCT035 BKN100 TEMPO 1908/1913 VRB12G25KT 5000 TSRA FEW018CB SCT035 BKN100

2020 © VATRUS division (Privacy Policy)